sensor_id;sensor_type;location;lat;lon;timestamp;P1;durP1;ratioP1;P2;durP2;ratioP2
20067;SDS011;10194;50.824;7.134;2023-05-20T00:00:36;135.50;;;67.63;;
20067;SDS011;10194;50.824;7.134;2023-05-20T00:03:05;129.10;;;65.03;;
20067;SDS011;10194;50.824;7.134;2023-05-20T00:06:26;129.03;;;64.90;;
20067;SDS011;10194;50.824;7.134;2023-05-20T00:08:56;129.77;;;64.80;;
20067;SDS011;10194;50.824;7.134;2023-05-20T00:11:31;129.47;;;64.47;;
20067;SDS011;10194;50.824;7.134;2023-05-20T00:17:18;131.20;;;65.03;;
20067;SDS011;10194;50.824;7.134;2023-05-20T00:23:09;131.00;;;64.53;;
20067;SDS011;10194;50.824;7.134;2023-05-20T00:25:44;128.97;;;64.33;;
20067;SDS011;10194;50.824;7.134;2023-05-20T00:28:13;129.97;;;64.97;;
20067;SDS011;10194;50.824;7.134;2023-05-20T00:30:39;133.97;;;67.97;;
20067;SDS011;10194;50.824;7.134;2023-05-20T00:33:09;128.57;;;65.53;;
20067;SDS011;10194;50.824;7.134;2023-05-20T00:35:36;130.40;;;64.93;;
20067;SDS011;10194;50.824;7.134;2023-05-20T00:38:02;128.77;;;65.33;;
20067;SDS011;10194;50.824;7.134;2023-05-20T00:40:28;130.33;;;65.20;;
20067;SDS011;10194;50.824;7.134;2023-05-20T00:42:54;132.07;;;66.10;;
20067;SDS011;10194;50.824;7.134;2023-05-20T00:45:20;129.70;;;65.53;;
20067;SDS011;10194;50.824;7.134;2023-05-20T00:47:46;131.73;;;65.50;;
20067;SDS011;10194;50.824;7.134;2023-05-20T00:50:13;129.77;;;65.60;;
20067;SDS011;10194;50.824;7.134;2023-05-20T00:52:38;127.77;;;66.00;;
20067;SDS011;10194;50.824;7.134;2023-05-20T00:55:08;129.80;;;67.13;;
20067;SDS011;10194;50.824;7.134;2023-05-20T00:57:34;129.93;;;66.90;;
20067;SDS011;10194;50.824;7.134;2023-05-20T01:00:01;134.77;;;69.50;;
20067;SDS011;10194;50.824;7.134;2023-05-20T01:02:28;130.60;;;65.53;;
20067;SDS011;10194;50.824;7.134;2023-05-20T01:04:54;128.13;;;67.07;;
20067;SDS011;10194;50.824;7.134;2023-05-20T01:07:20;131.30;;;69.63;;
20067;SDS011;10194;50.824;7.134;2023-05-20T01:09:46;134.27;;;70.13;;
20067;SDS011;10194;50.824;7.134;2023-05-20T01:12:17;131.07;;;69.23;;
20067;SDS011;10194;50.824;7.134;2023-05-20T01:14:53;130.63;;;72.93;;
20067;SDS011;10194;50.824;7.134;2023-05-20T01:17:26;133.07;;;77.17;;
20067;SDS011;10194;50.824;7.134;2023-05-20T01:19:57;134.20;;;77.37;;
20067;SDS011;10194;50.824;7.134;2023-05-20T01:22:27;135.87;;;79.77;;
20067;SDS011;10194;50.824;7.134;2023-05-20T01:24:54;137.13;;;84.07;;
20067;SDS011;10194;50.824;7.134;2023-05-20T01:27:21;135.67;;;80.87;;
20067;SDS011;10194;50.824;7.134;2023-05-20T01:29:48;143.17;;;84.67;;
20067;SDS011;10194;50.824;7.134;2023-05-20T01:32:22;134.67;;;75.97;;
20067;SDS011;10194;50.824;7.134;2023-05-20T01:34:56;138.13;;;83.60;;
20067;SDS011;10194;50.824;7.134;2023-05-20T01:37:24;137.60;;;83.47;;
20067;SDS011;10194;50.824;7.134;2023-05-20T01:39:51;141.00;;;87.20;;
20067;SDS011;10194;50.824;7.134;2023-05-20T01:42:19;141.63;;;88.17;;
20067;SDS011;10194;50.824;7.134;2023-05-20T01:44:45;139.30;;;88.97;;
20067;SDS011;10194;50.824;7.134;2023-05-20T01:47:11;144.17;;;95.80;;
20067;SDS011;10194;50.824;7.134;2023-05-20T01:49:37;145.70;;;97.57;;
20067;SDS011;10194;50.824;7.134;2023-05-20T01:52:03;146.77;;;99.13;;
20067;SDS011;10194;50.824;7.134;2023-05-20T01:54:29;145.40;;;101.00;;
20067;SDS011;10194;50.824;7.134;2023-05-20T01:56:56;152.90;;;116.77;;
20067;SDS011;10194;50.824;7.134;2023-05-20T01:59:21;157.40;;;113.57;;
20067;SDS011;10194;50.824;7.134;2023-05-20T02:01:47;153.70;;;118.03;;
20067;SDS011;10194;50.824;7.134;2023-05-20T02:04:16;158.93;;;121.57;;
20067;SDS011;10194;50.824;7.134;2023-05-20T02:06:43;154.93;;;120.77;;
20067;SDS011;10194;50.824;7.134;2023-05-20T02:09:09;158.00;;;127.00;;
20067;SDS011;10194;50.824;7.134;2023-05-20T02:11:35;163.23;;;135.27;;
20067;SDS011;10194;50.824;7.134;2023-05-20T02:14:01;169.30;;;149.63;;
20067;SDS011;10194;50.824;7.134;2023-05-20T02:16:27;161.87;;;132.17;;
20067;SDS011;10194;50.824;7.134;2023-05-20T02:18:52;167.77;;;140.80;;
20067;SDS011;10194;50.824;7.134;2023-05-20T02:21:18;161.53;;;135.23;;
20067;SDS011;10194;50.824;7.134;2023-05-20T02:23:45;165.70;;;139.73;;
20067;SDS011;10194;50.824;7.134;2023-05-20T02:26:11;164.27;;;140.30;;
20067;SDS011;10194;50.824;7.134;2023-05-20T02:28:36;159.67;;;131.40;;
20067;SDS011;10194;50.824;7.134;2023-05-20T02:31:05;169.17;;;145.37;;
20067;SDS011;10194;50.824;7.134;2023-05-20T02:33:31;171.30;;;151.97;;
20067;SDS011;10194;50.824;7.134;2023-05-20T02:35:57;176.97;;;157.87;;
20067;SDS011;10194;50.824;7.134;2023-05-20T02:38:23;172.97;;;153.93;;
20067;SDS011;10194;50.824;7.134;2023-05-20T02:40:48;185.23;;;165.60;;
20067;SDS011;10194;50.824;7.134;2023-05-20T02:43:14;184.17;;;164.70;;
20067;SDS011;10194;50.824;7.134;2023-05-20T02:45:40;184.50;;;165.33;;
20067;SDS011;10194;50.824;7.134;2023-05-20T02:48:06;191.47;;;171.60;;
20067;SDS011;10194;50.824;7.134;2023-05-20T02:50:31;177.50;;;157.83;;
20067;SDS011;10194;50.824;7.134;2023-05-20T02:52:57;183.57;;;164.20;;
20067;SDS011;10194;50.824;7.134;2023-05-20T02:55:23;185.60;;;166.17;;
20067;SDS011;10194;50.824;7.134;2023-05-20T02:57:48;188.43;;;168.73;;
20067;SDS011;10194;50.824;7.134;2023-05-20T03:00:14;190.30;;;170.53;;
20067;SDS011;10194;50.824;7.134;2023-05-20T03:02:40;183.80;;;164.17;;
20067;SDS011;10194;50.824;7.134;2023-05-20T03:05:06;179.80;;;160.80;;
20067;SDS011;10194;50.824;7.134;2023-05-20T03:07:33;177.70;;;158.60;;
20067;SDS011;10194;50.824;7.134;2023-05-20T03:10:00;165.00;;;146.90;;
20067;SDS011;10194;50.824;7.134;2023-05-20T03:12:27;164.63;;;144.93;;
20067;SDS011;10194;50.824;7.134;2023-05-20T03:14:53;170.97;;;151.93;;
20067;SDS011;10194;50.824;7.134;2023-05-20T03:17:19;169.93;;;151.30;;
20067;SDS011;10194;50.824;7.134;2023-05-20T03:19:46;173.57;;;154.80;;
20067;SDS011;10194;50.824;7.134;2023-05-20T03:22:12;176.53;;;157.67;;
20067;SDS011;10194;50.824;7.134;2023-05-20T03:24:38;184.77;;;165.47;;
20067;SDS011;10194;50.824;7.134;2023-05-20T03:27:04;174.40;;;155.63;;
20067;SDS011;10194;50.824;7.134;2023-05-20T03:29:30;187.70;;;167.67;;
20067;SDS011;10194;50.824;7.134;2023-05-20T03:31:57;189.60;;;170.07;;
20067;SDS011;10194;50.824;7.134;2023-05-20T03:34:23;200.33;;;180.47;;
20067;SDS011;10194;50.824;7.134;2023-05-20T03:36:50;199.73;;;179.73;;
20067;SDS011;10194;50.824;7.134;2023-05-20T03:39:15;203.67;;;183.33;;
20067;SDS011;10194;50.824;7.134;2023-05-20T03:41:41;210.23;;;189.77;;
20067;SDS011;10194;50.824;7.134;2023-05-20T03:44:07;202.17;;;181.90;;
20067;SDS011;10194;50.824;7.134;2023-05-20T03:46:33;201.67;;;181.37;;
20067;SDS011;10194;50.824;7.134;2023-05-20T03:48:59;195.53;;;175.83;;
20067;SDS011;10194;50.824;7.134;2023-05-20T03:51:26;199.37;;;179.23;;
20067;SDS011;10194;50.824;7.134;2023-05-20T03:53:52;191.80;;;171.97;;
20067;SDS011;10194;50.824;7.134;2023-05-20T03:56:18;192.50;;;172.70;;
20067;SDS011;10194;50.824;7.134;2023-05-20T03:58:43;192.70;;;173.07;;
20067;SDS011;10194;50.824;7.134;2023-05-20T04:01:09;184.50;;;165.03;;
20067;SDS011;10194;50.824;7.134;2023-05-20T04:03:37;190.53;;;170.83;;
20067;SDS011;10194;50.824;7.134;2023-05-20T04:06:03;198.83;;;178.60;;
20067;SDS011;10194;50.824;7.134;2023-05-20T04:08:28;202.17;;;182.00;;
20067;SDS011;10194;50.824;7.134;2023-05-20T04:10:55;193.90;;;174.37;;
20067;SDS011;10194;50.824;7.134;2023-05-20T04:13:21;200.83;;;180.80;;
20067;SDS011;10194;50.824;7.134;2023-05-20T04:15:49;200.57;;;180.50;;
20067;SDS011;10194;50.824;7.134;2023-05-20T04:18:17;200.60;;;180.30;;
20067;SDS011;10194;50.824;7.134;2023-05-20T04:20:43;194.10;;;174.30;;
20067;SDS011;10194;50.824;7.134;2023-05-20T04:23:10;201.13;;;180.97;;
20067;SDS011;10194;50.824;7.134;2023-05-20T04:25:36;209.60;;;187.70;;
20067;SDS011;10194;50.824;7.134;2023-05-20T04:28:02;209.50;;;188.73;;
20067;SDS011;10194;50.824;7.134;2023-05-20T04:30:29;206.93;;;186.13;;
20067;SDS011;10194;50.824;7.134;2023-05-20T04:32:57;207.53;;;186.93;;
20067;SDS011;10194;50.824;7.134;2023-05-20T04:35:26;209.00;;;188.30;;
20067;SDS011;10194;50.824;7.134;2023-05-20T04:37:53;200.30;;;180.20;;
20067;SDS011;10194;50.824;7.134;2023-05-20T04:40:19;199.33;;;178.97;;
20067;SDS011;10194;50.824;7.134;2023-05-20T04:42:47;201.63;;;181.37;;
20067;SDS011;10194;50.824;7.134;2023-05-20T04:45:12;197.43;;;177.30;;
20067;SDS011;10194;50.824;7.134;2023-05-20T04:47:38;197.27;;;177.37;;
20067;SDS011;10194;50.824;7.134;2023-05-20T04:50:06;191.20;;;171.53;;
20067;SDS011;10194;50.824;7.134;2023-05-20T04:52:37;189.53;;;169.93;;
20067;SDS011;10194;50.824;7.134;2023-05-20T04:55:04;174.83;;;155.97;;
20067;SDS011;10194;50.824;7.134;2023-05-20T04:57:35;162.43;;;137.97;;
20067;SDS011;10194;50.824;7.134;2023-05-20T05:00:06;160.30;;;133.37;;
20067;SDS011;10194;50.824;7.134;2023-05-20T05:02:34;159.40;;;133.10;;
20067;SDS011;10194;50.824;7.134;2023-05-20T05:05:01;162.13;;;136.03;;
20067;SDS011;10194;50.824;7.134;2023-05-20T05:07:26;163.17;;;135.63;;
20067;SDS011;10194;50.824;7.134;2023-05-20T05:09:52;153.47;;;116.17;;
20067;SDS011;10194;50.824;7.134;2023-05-20T05:12:18;154.43;;;110.90;;
20067;SDS011;10194;50.824;7.134;2023-05-20T05:14:43;147.37;;;100.90;;
20067;SDS011;10194;50.824;7.134;2023-05-20T05:17:09;144.03;;;96.80;;
20067;SDS011;10194;50.824;7.134;2023-05-20T05:19:35;145.97;;;93.57;;
20067;SDS011;10194;50.824;7.134;2023-05-20T05:22:01;137.23;;;83.43;;
20067;SDS011;10194;50.824;7.134;2023-05-20T05:24:27;139.53;;;81.07;;
20067;SDS011;10194;50.824;7.134;2023-05-20T05:26:54;135.73;;;74.07;;
20067;SDS011;10194;50.824;7.134;2023-05-20T05:29:19;142.13;;;75.93;;
20067;SDS011;10194;50.824;7.134;2023-05-20T05:31:45;135.43;;;72.33;;
20067;SDS011;10194;50.824;7.134;2023-05-20T05:34:11;134.33;;;72.73;;
20067;SDS011;10194;50.824;7.134;2023-05-20T05:36:37;134.40;;;70.60;;
20067;SDS011;10194;50.824;7.134;2023-05-20T05:39:04;135.87;;;72.43;;
20067;SDS011;10194;50.824;7.134;2023-05-20T05:41:31;134.80;;;71.73;;
20067;SDS011;10194;50.824;7.134;2023-05-20T05:43:57;135.93;;;71.57;;
20067;SDS011;10194;50.824;7.134;2023-05-20T05:46:23;135.83;;;70.80;;
20067;SDS011;10194;50.824;7.134;2023-05-20T05:48:50;134.07;;;70.50;;
20067;SDS011;10194;50.824;7.134;2023-05-20T05:51:16;133.43;;;69.50;;
20067;SDS011;10194;50.824;7.134;2023-05-20T05:53:42;133.90;;;69.57;;
20067;SDS011;10194;50.824;7.134;2023-05-20T05:56:08;135.73;;;69.77;;
20067;SDS011;10194;50.824;7.134;2023-05-20T05:58:34;134.47;;;69.33;;
20067;SDS011;10194;50.824;7.134;2023-05-20T06:01:00;134.53;;;69.53;;
20067;SDS011;10194;50.824;7.134;2023-05-20T06:03:26;133.73;;;69.33;;
20067;SDS011;10194;50.824;7.134;2023-05-20T06:05:53;135.10;;;69.20;;
20067;SDS011;10194;50.824;7.134;2023-05-20T06:08:19;134.57;;;69.30;;
20067;SDS011;10194;50.824;7.134;2023-05-20T06:10:48;134.83;;;70.00;;
20067;SDS011;10194;50.824;7.134;2023-05-20T06:13:14;134.33;;;69.80;;
20067;SDS011;10194;50.824;7.134;2023-05-20T06:15:41;134.73;;;69.83;;
20067;SDS011;10194;50.824;7.134;2023-05-20T06:18:07;136.47;;;70.33;;
20067;SDS011;10194;50.824;7.134;2023-05-20T06:20:33;137.10;;;71.57;;
20067;SDS011;10194;50.824;7.134;2023-05-20T06:22:59;136.67;;;72.03;;
20067;SDS011;10194;50.824;7.134;2023-05-20T06:25:26;139.67;;;73.00;;
20067;SDS011;10194;50.824;7.134;2023-05-20T06:27:51;135.10;;;71.73;;
20067;SDS011;10194;50.824;7.134;2023-05-20T06:30:17;141.00;;;73.93;;
20067;SDS011;10194;50.824;7.134;2023-05-20T06:32:44;135.43;;;72.80;;
20067;SDS011;10194;50.824;7.134;2023-05-20T06:35:10;137.37;;;73.37;;
20067;SDS011;10194;50.824;7.134;2023-05-20T06:37:36;136.60;;;72.83;;
20067;SDS011;10194;50.824;7.134;2023-05-20T06:40:02;134.87;;;73.47;;
20067;SDS011;10194;50.824;7.134;2023-05-20T06:42:28;136.20;;;73.03;;
20067;SDS011;10194;50.824;7.134;2023-05-20T06:44:54;135.30;;;72.60;;
20067;SDS011;10194;50.824;7.134;2023-05-20T06:47:20;137.33;;;72.83;;
20067;SDS011;10194;50.824;7.134;2023-05-20T06:49:45;137.23;;;73.07;;
20067;SDS011;10194;50.824;7.134;2023-05-20T06:52:11;136.93;;;73.13;;
20067;SDS011;10194;50.824;7.134;2023-05-20T06:54:37;135.10;;;72.80;;
20067;SDS011;10194;50.824;7.134;2023-05-20T06:57:08;138.30;;;73.07;;
20067;SDS011;10194;50.824;7.134;2023-05-20T06:59:34;143.73;;;75.43;;
20067;SDS011;10194;50.824;7.134;2023-05-20T07:02:01;136.40;;;73.87;;
20067;SDS011;10194;50.824;7.134;2023-05-20T07:04:28;140.73;;;75.53;;
20067;SDS011;10194;50.824;7.134;2023-05-20T07:06:53;137.97;;;75.40;;
20067;SDS011;10194;50.824;7.134;2023-05-20T07:09:19;145.77;;;77.27;;
20067;SDS011;10194;50.824;7.134;2023-05-20T07:11:45;139.13;;;75.20;;
20067;SDS011;10194;50.824;7.134;2023-05-20T07:14:11;136.67;;;75.33;;
20067;SDS011;10194;50.824;7.134;2023-05-20T07:16:37;138.23;;;75.20;;
20067;SDS011;10194;50.824;7.134;2023-05-20T07:19:03;139.10;;;74.77;;
20067;SDS011;10194;50.824;7.134;2023-05-20T07:21:28;137.70;;;74.33;;
20067;SDS011;10194;50.824;7.134;2023-05-20T07:23:55;137.03;;;74.87;;
20067;SDS011;10194;50.824;7.134;2023-05-20T07:26:20;138.00;;;74.30;;
20067;SDS011;10194;50.824;7.134;2023-05-20T07:28:46;136.80;;;74.73;;
20067;SDS011;10194;50.824;7.134;2023-05-20T07:31:12;138.47;;;75.13;;
20067;SDS011;10194;50.824;7.134;2023-05-20T07:33:38;139.57;;;76.00;;
20067;SDS011;10194;50.824;7.134;2023-05-20T07:36:04;139.60;;;75.83;;
20067;SDS011;10194;50.824;7.134;2023-05-20T07:38:30;137.07;;;75.60;;
20067;SDS011;10194;50.824;7.134;2023-05-20T07:40:56;139.87;;;77.23;;
20067;SDS011;10194;50.824;7.134;2023-05-20T07:43:22;138.00;;;76.87;;
20067;SDS011;10194;50.824;7.134;2023-05-20T07:45:48;141.77;;;78.00;;
20067;SDS011;10194;50.824;7.134;2023-05-20T07:48:13;138.23;;;77.03;;
20067;SDS011;10194;50.824;7.134;2023-05-20T07:50:39;137.07;;;75.97;;
20067;SDS011;10194;50.824;7.134;2023-05-20T07:53:05;137.87;;;77.00;;
20067;SDS011;10194;50.824;7.134;2023-05-20T07:55:32;136.93;;;75.77;;
20067;SDS011;10194;50.824;7.134;2023-05-20T07:58:00;137.07;;;77.33;;
20067;SDS011;10194;50.824;7.134;2023-05-20T08:00:27;143.27;;;77.30;;
20067;SDS011;10194;50.824;7.134;2023-05-20T08:02:53;137.37;;;75.70;;
20067;SDS011;10194;50.824;7.134;2023-05-20T08:05:18;138.17;;;75.80;;
20067;SDS011;10194;50.824;7.134;2023-05-20T08:07:44;136.70;;;75.07;;
20067;SDS011;10194;50.824;7.134;2023-05-20T08:10:10;137.80;;;75.60;;
20067;SDS011;10194;50.824;7.134;2023-05-20T08:12:36;138.00;;;75.87;;
20067;SDS011;10194;50.824;7.134;2023-05-20T08:15:02;138.20;;;76.40;;
20067;SDS011;10194;50.824;7.134;2023-05-20T08:17:28;137.80;;;76.03;;
20067;SDS011;10194;50.824;7.134;2023-05-20T08:19:54;138.13;;;77.60;;
20067;SDS011;10194;50.824;7.134;2023-05-20T08:22:20;142.20;;;77.03;;
20067;SDS011;10194;50.824;7.134;2023-05-20T08:24:46;138.03;;;77.37;;
20067;SDS011;10194;50.824;7.134;2023-05-20T08:27:11;138.43;;;77.23;;
20067;SDS011;10194;50.824;7.134;2023-05-20T08:29:37;139.57;;;78.40;;
20067;SDS011;10194;50.824;7.134;2023-05-20T08:32:03;142.80;;;79.37;;
20067;SDS011;10194;50.824;7.134;2023-05-20T08:34:29;144.13;;;76.23;;
20067;SDS011;10194;50.824;7.134;2023-05-20T08:36:55;141.33;;;77.13;;
20067;SDS011;10194;50.824;7.134;2023-05-20T08:39:21;147.60;;;79.00;;
20067;SDS011;10194;50.824;7.134;2023-05-20T08:41:47;139.60;;;75.90;;
20067;SDS011;10194;50.824;7.134;2023-05-20T08:44:13;137.17;;;76.13;;
20067;SDS011;10194;50.824;7.134;2023-05-20T08:46:44;138.73;;;78.13;;
20067;SDS011;10194;50.824;7.134;2023-05-20T08:49:12;137.60;;;76.63;;
20067;SDS011;10194;50.824;7.134;2023-05-20T08:51:38;137.60;;;76.27;;
20067;SDS011;10194;50.824;7.134;2023-05-20T08:54:04;141.67;;;77.70;;
20067;SDS011;10194;50.824;7.134;2023-05-20T08:56:32;140.97;;;78.97;;
20067;SDS011;10194;50.824;7.134;2023-05-20T08:58:59;139.17;;;77.83;;
20067;SDS011;10194;50.824;7.134;2023-05-20T09:01:25;139.83;;;79.07;;
20067;SDS011;10194;50.824;7.134;2023-05-20T09:03:52;146.73;;;81.90;;
20067;SDS011;10194;50.824;7.134;2023-05-20T09:06:17;141.63;;;81.10;;
20067;SDS011;10194;50.824;7.134;2023-05-20T09:08:44;143.70;;;81.00;;
20067;SDS011;10194;50.824;7.134;2023-05-20T09:11:12;145.43;;;82.13;;
20067;SDS011;10194;50.824;7.134;2023-05-20T09:13:38;146.30;;;83.10;;
20067;SDS011;10194;50.824;7.134;2023-05-20T09:16:04;142.43;;;83.87;;
20067;SDS011;10194;50.824;7.134;2023-05-20T09:18:30;142.23;;;82.40;;
20067;SDS011;10194;50.824;7.134;2023-05-20T09:20:56;141.77;;;81.50;;
20067;SDS011;10194;50.824;7.134;2023-05-20T09:23:22;140.70;;;80.63;;
20067;SDS011;10194;50.824;7.134;2023-05-20T09:25:49;140.03;;;79.97;;
20067;SDS011;10194;50.824;7.134;2023-05-20T09:28:17;140.87;;;79.93;;
20067;SDS011;10194;50.824;7.134;2023-05-20T09:30:49;143.67;;;81.43;;
20067;SDS011;10194;50.824;7.134;2023-05-20T09:33:15;143.70;;;81.50;;
20067;SDS011;10194;50.824;7.134;2023-05-20T09:35:42;140.23;;;78.47;;
20067;SDS011;10194;50.824;7.134;2023-05-20T09:38:08;140.63;;;78.90;;
20067;SDS011;10194;50.824;7.134;2023-05-20T09:40:35;140.13;;;78.03;;
20067;SDS011;10194;50.824;7.134;2023-05-20T09:43:05;139.17;;;77.50;;
20067;SDS011;10194;50.824;7.134;2023-05-20T09:45:31;138.20;;;77.20;;
20067;SDS011;10194;50.824;7.134;2023-05-20T09:47:57;143.53;;;80.50;;
20067;SDS011;10194;50.824;7.134;2023-05-20T09:50:25;140.77;;;78.00;;
20067;SDS011;10194;50.824;7.134;2023-05-20T09:52:53;138.67;;;76.87;;
20067;SDS011;10194;50.824;7.134;2023-05-20T09:55:21;139.13;;;77.67;;
20067;SDS011;10194;50.824;7.134;2023-05-20T09:57:48;139.60;;;78.27;;
20067;SDS011;10194;50.824;7.134;2023-05-20T10:00:15;140.53;;;79.20;;
20067;SDS011;10194;50.824;7.134;2023-05-20T10:02:51;139.37;;;78.00;;
20067;SDS011;10194;50.824;7.134;2023-05-20T10:05:21;139.57;;;78.30;;
20067;SDS011;10194;50.824;7.134;2023-05-20T10:13:49;138.47;;;77.70;;
20067;SDS011;10194;50.824;7.134;2023-05-20T10:16:26;140.97;;;78.77;;
20067;SDS011;10194;50.824;7.134;2023-05-20T10:19:14;140.67;;;78.73;;
20067;SDS011;10194;50.824;7.134;2023-05-20T10:21:58;139.30;;;78.63;;
20067;SDS011;10194;50.824;7.134;2023-05-20T10:24:30;141.93;;;78.97;;
20067;SDS011;10194;50.824;7.134;2023-05-20T10:26:57;140.60;;;80.90;;
20067;SDS011;10194;50.824;7.134;2023-05-20T10:29:25;155.03;;;83.80;;
20067;SDS011;10194;50.824;7.134;2023-05-20T10:31:51;138.90;;;78.03;;
20067;SDS011;10194;50.824;7.134;2023-05-20T10:34:18;138.73;;;77.27;;
20067;SDS011;10194;50.824;7.134;2023-05-20T10:39:17;145.37;;;81.37;;
20067;SDS011;10194;50.824;7.134;2023-05-20T10:41:44;140.23;;;78.87;;
20067;SDS011;10194;50.824;7.134;2023-05-20T10:44:09;140.77;;;80.00;;
20067;SDS011;10194;50.824;7.134;2023-05-20T10:46:35;141.53;;;80.20;;
20067;SDS011;10194;50.824;7.134;2023-05-20T10:49:01;143.17;;;81.07;;
20067;SDS011;10194;50.824;7.134;2023-05-20T10:51:29;137.93;;;79.80;;
20067;SDS011;10194;50.824;7.134;2023-05-20T10:53:56;141.67;;;78.93;;
20067;SDS011;10194;50.824;7.134;2023-05-20T10:56:23;139.10;;;79.37;;
20067;SDS011;10194;50.824;7.134;2023-05-20T10:58:51;140.37;;;80.30;;
20067;SDS011;10194;50.824;7.134;2023-05-20T11:01:22;138.77;;;79.67;;
20067;SDS011;10194;50.824;7.134;2023-05-20T11:03:50;139.70;;;79.47;;
20067;SDS011;10194;50.824;7.134;2023-05-20T11:06:23;140.57;;;80.40;;
20067;SDS011;10194;50.824;7.134;2023-05-20T11:08:52;142.67;;;81.83;;
20067;SDS011;10194;50.824;7.134;2023-05-20T11:11:19;141.83;;;80.37;;
20067;SDS011;10194;50.824;7.134;2023-05-20T11:13:50;141.57;;;82.67;;
20067;SDS011;10194;50.824;7.134;2023-05-20T11:16:17;141.07;;;81.17;;
20067;SDS011;10194;50.824;7.134;2023-05-20T11:18:46;140.07;;;79.77;;
20067;SDS011;10194;50.824;7.134;2023-05-20T11:21:14;141.57;;;80.50;;
20067;SDS011;10194;50.824;7.134;2023-05-20T11:23:40;139.50;;;80.20;;
20067;SDS011;10194;50.824;7.134;2023-05-20T11:26:06;142.53;;;81.40;;
20067;SDS011;10194;50.824;7.134;2023-05-20T11:28:33;141.10;;;81.37;;
20067;SDS011;10194;50.824;7.134;2023-05-20T11:31:00;140.97;;;79.77;;
20067;SDS011;10194;50.824;7.134;2023-05-20T11:33:25;140.47;;;79.37;;
20067;SDS011;10194;50.824;7.134;2023-05-20T11:35:51;141.23;;;79.03;;
20067;SDS011;10194;50.824;7.134;2023-05-20T11:38:22;138.23;;;78.47;;
20067;SDS011;10194;50.824;7.134;2023-05-20T11:40:53;139.03;;;78.93;;
20067;SDS011;10194;50.824;7.134;2023-05-20T11:43:20;139.00;;;78.60;;
20067;SDS011;10194;50.824;7.134;2023-05-20T11:45:56;142.33;;;80.13;;
20067;SDS011;10194;50.824;7.134;2023-05-20T11:48:26;140.23;;;79.13;;
20067;SDS011;10194;50.824;7.134;2023-05-20T11:50:56;140.40;;;78.70;;
20067;SDS011;10194;50.824;7.134;2023-05-20T11:53:22;139.10;;;78.37;;
20067;SDS011;10194;50.824;7.134;2023-05-20T11:55:52;140.40;;;79.10;;
20067;SDS011;10194;50.824;7.134;2023-05-20T11:58:23;139.03;;;78.60;;
20067;SDS011;10194;50.824;7.134;2023-05-20T12:00:58;140.33;;;79.13;;
20067;SDS011;10194;50.824;7.134;2023-05-20T12:03:25;139.30;;;79.13;;
20067;SDS011;10194;50.824;7.134;2023-05-20T12:05:51;139.87;;;79.13;;
20067;SDS011;10194;50.824;7.134;2023-05-20T12:08:17;142.60;;;79.33;;
20067;SDS011;10194;50.824;7.134;2023-05-20T12:10:43;167.55;;;120.82;;
20067;SDS011;10194;50.824;7.134;2023-05-20T12:13:09;145.13;;;90.33;;
20067;SDS011;10194;50.824;7.134;2023-05-20T12:15:37;142.63;;;84.90;;
20067;SDS011;10194;50.824;7.134;2023-05-20T12:18:04;142.10;;;82.10;;
20067;SDS011;10194;50.824;7.134;2023-05-20T12:20:30;145.37;;;84.30;;
20067;SDS011;10194;50.824;7.134;2023-05-20T12:22:58;143.03;;;84.33;;
20067;SDS011;10194;50.824;7.134;2023-05-20T12:25:24;145.40;;;87.00;;
20067;SDS011;10194;50.824;7.134;2023-05-20T12:27:50;157.27;;;89.77;;
20067;SDS011;10194;50.824;7.134;2023-05-20T12:30:17;147.43;;;87.83;;
20067;SDS011;10194;50.824;7.134;2023-05-20T12:32:45;144.97;;;85.07;;
20067;SDS011;10194;50.824;7.134;2023-05-20T12:35:13;140.70;;;81.20;;
20067;SDS011;10194;50.824;7.134;2023-05-20T12:37:39;145.10;;;85.80;;
20067;SDS011;10194;50.824;7.134;2023-05-20T12:40:07;144.60;;;83.90;;
20067;SDS011;10194;50.824;7.134;2023-05-20T12:42:35;141.83;;;84.03;;
20067;SDS011;10194;50.824;7.134;2023-05-20T12:45:02;139.70;;;82.70;;
20067;SDS011;10194;50.824;7.134;2023-05-20T12:47:32;141.50;;;81.83;;
20067;SDS011;10194;50.824;7.134;2023-05-20T12:49:59;140.27;;;82.33;;
20067;SDS011;10194;50.824;7.134;2023-05-20T12:52:26;139.63;;;81.73;;
20067;SDS011;10194;50.824;7.134;2023-05-20T12:54:52;142.20;;;81.43;;
20067;SDS011;10194;50.824;7.134;2023-05-20T12:57:20;142.23;;;82.37;;
20067;SDS011;10194;50.824;7.134;2023-05-20T12:59:49;143.93;;;82.27;;
20067;SDS011;10194;50.824;7.134;2023-05-20T13:02:15;142.80;;;81.50;;
20067;SDS011;10194;50.824;7.134;2023-05-20T13:04:40;138.90;;;79.70;;
20067;SDS011;10194;50.824;7.134;2023-05-20T13:07:06;141.93;;;80.53;;
20067;SDS011;10194;50.824;7.134;2023-05-20T13:09:32;146.90;;;82.77;;
20067;SDS011;10194;50.824;7.134;2023-05-20T13:11:58;139.97;;;80.43;;
20067;SDS011;10194;50.824;7.134;2023-05-20T13:14:25;141.73;;;81.90;;
20067;SDS011;10194;50.824;7.134;2023-05-20T13:16:52;149.07;;;85.07;;
20067;SDS011;10194;50.824;7.134;2023-05-20T13:19:22;145.97;;;82.43;;
20067;SDS011;10194;50.824;7.134;2023-05-20T13:21:49;138.60;;;82.10;;
20067;SDS011;10194;50.824;7.134;2023-05-20T13:24:16;137.73;;;81.67;;
20067;SDS011;10194;50.824;7.134;2023-05-20T13:26:42;145.33;;;82.03;;
20067;SDS011;10194;50.824;7.134;2023-05-20T13:29:09;139.40;;;78.83;;
20067;SDS011;10194;50.824;7.134;2023-05-20T13:31:36;143.00;;;79.53;;
20067;SDS011;10194;50.824;7.134;2023-05-20T13:34:02;138.17;;;78.27;;
20067;SDS011;10194;50.824;7.134;2023-05-20T13:36:28;142.27;;;77.47;;
20067;SDS011;10194;50.824;7.134;2023-05-20T13:38:54;140.10;;;78.90;;
20067;SDS011;10194;50.824;7.134;2023-05-20T13:41:20;144.27;;;80.17;;
20067;SDS011;10194;50.824;7.134;2023-05-20T13:43:48;146.07;;;79.77;;
20067;SDS011;10194;50.824;7.134;2023-05-20T13:46:15;142.37;;;81.27;;
20067;SDS011;10194;50.824;7.134;2023-05-20T13:48:41;138.73;;;79.80;;
20067;SDS011;10194;50.824;7.134;2023-05-20T13:51:07;143.07;;;80.93;;
20067;SDS011;10194;50.824;7.134;2023-05-20T13:53:32;139.87;;;80.80;;
20067;SDS011;10194;50.824;7.134;2023-05-20T13:55:58;142.37;;;80.77;;
20067;SDS011;10194;50.824;7.134;2023-05-20T13:58:24;139.50;;;80.40;;
20067;SDS011;10194;50.824;7.134;2023-05-20T14:00:50;147.90;;;87.90;;
20067;SDS011;10194;50.824;7.134;2023-05-20T14:03:16;139.73;;;80.53;;
20067;SDS011;10194;50.824;7.134;2023-05-20T14:05:42;141.93;;;80.60;;
20067;SDS011;10194;50.824;7.134;2023-05-20T14:08:07;141.33;;;80.93;;
20067;SDS011;10194;50.824;7.134;2023-05-20T14:10:33;141.67;;;81.77;;
20067;SDS011;10194;50.824;7.134;2023-05-20T14:12:59;142.37;;;81.83;;
20067;SDS011;10194;50.824;7.134;2023-05-20T14:15:26;138.73;;;80.07;;
20067;SDS011;10194;50.824;7.134;2023-05-20T14:17:55;139.50;;;80.10;;
20067;SDS011;10194;50.824;7.134;2023-05-20T14:20:22;141.30;;;81.63;;